sensor_id;sensor_type;location;lat;lon;timestamp;temperature;humidity
67557;DHT22;54387;53.526;49.300;2023-09-19T00:00:23;13.50;64.50
67557;DHT22;54387;53.526;49.300;2023-09-19T00:02:53;13.50;64.60
67557;DHT22;54387;53.526;49.300;2023-09-19T00:05:19;13.50;64.50
67557;DHT22;54387;53.526;49.300;2023-09-19T00:07:50;13.50;64.50
67557;DHT22;54387;53.526;49.300;2023-09-19T00:10:22;13.40;64.40
67557;DHT22;54387;53.526;49.300;2023-09-19T00:12:55;13.40;64.50
67557;DHT22;54387;53.526;49.300;2023-09-19T00:15:22;13.40;65.00
67557;DHT22;54387;53.526;49.300;2023-09-19T00:17:49;13.40;64.40
67557;DHT22;54387;53.526;49.300;2023-09-19T00:20:18;13.30;64.40
67557;DHT22;54387;53.526;49.300;2023-09-19T00:22:44;13.30;64.40
67557;DHT22;54387;53.526;49.300;2023-09-19T00:25:11;13.30;64.40
67557;DHT22;54387;53.526;49.300;2023-09-19T00:27:38;13.20;64.40
67557;DHT22;54387;53.526;49.300;2023-09-19T00:30:08;13.20;64.40
67557;DHT22;54387;53.526;49.300;2023-09-19T00:32:42;13.20;64.50
67557;DHT22;54387;53.526;49.300;2023-09-19T00:35:08;13.20;64.60
67557;DHT22;54387;53.526;49.300;2023-09-19T00:37:37;13.10;64.50
67557;DHT22;54387;53.526;49.300;2023-09-19T00:40:06;13.10;64.50
67557;DHT22;54387;53.526;49.300;2023-09-19T00:42:33;13.10;64.60
67557;DHT22;54387;53.526;49.300;2023-09-19T00:44:59;13.10;64.60
67557;DHT22;54387;53.526;49.300;2023-09-19T00:47:29;13.00;64.60
67557;DHT22;54387;53.526;49.300;2023-09-19T00:49:55;13.00;64.70
67557;DHT22;54387;53.526;49.300;2023-09-19T00:52:22;13.00;64.70
67557;DHT22;54387;53.526;49.300;2023-09-19T00:54:49;13.00;64.70
67557;DHT22;54387;53.526;49.300;2023-09-19T00:57:16;13.00;64.80
67557;DHT22;54387;53.526;49.300;2023-09-19T00:59:43;13.00;64.80
67557;DHT22;54387;53.526;49.300;2023-09-19T01:02:09;13.00;64.70
67557;DHT22;54387;53.526;49.300;2023-09-19T01:04:36;13.10;64.80
67557;DHT22;54387;53.526;49.300;2023-09-19T01:07:03;13.10;64.80
67557;DHT22;54387;53.526;49.300;2023-09-19T01:09:29;13.10;64.70
67557;DHT22;54387;53.526;49.300;2023-09-19T01:11:58;13.10;64.70
67557;DHT22;54387;53.526;49.300;2023-09-19T01:14:32;13.10;64.80
67557;DHT22;54387;53.526;49.300;2023-09-19T01:17:05;13.10;64.70
67557;DHT22;54387;53.526;49.300;2023-09-19T01:22:25;13.10;64.80
67557;DHT22;54387;53.526;49.300;2023-09-19T01:30:10;13.20;65.00
67557;DHT22;54387;53.526;49.300;2023-09-19T01:32:38;13.20;65.00
67557;DHT22;54387;53.526;49.300;2023-09-19T01:35:07;13.30;65.00
67557;DHT22;54387;53.526;49.300;2023-09-19T01:37:38;13.30;65.10
67557;DHT22;54387;53.526;49.300;2023-09-19T01:40:06;13.40;65.10
67557;DHT22;54387;53.526;49.300;2023-09-19T01:43:09;13.40;65.10
67557;DHT22;54387;53.526;49.300;2023-09-19T01:53:34;13.50;65.00
67557;DHT22;54387;53.526;49.300;2023-09-19T01:56:01;13.50;64.90
67557;DHT22;54387;53.526;49.300;2023-09-19T01:58:37;13.50;65.00
67557;DHT22;54387;53.526;49.300;2023-09-19T02:01:05;13.50;65.00
67557;DHT22;54387;53.526;49.300;2023-09-19T02:03:33;13.50;65.00
67557;DHT22;54387;53.526;49.300;2023-09-19T02:05:59;13.40;65.00
67557;DHT22;54387;53.526;49.300;2023-09-19T02:08:26;13.40;65.20
67557;DHT22;54387;53.526;49.300;2023-09-19T02:10:52;13.40;65.30
67557;DHT22;54387;53.526;49.300;2023-09-19T02:13:19;13.30;65.20
67557;DHT22;54387;53.526;49.300;2023-09-19T02:15:45;13.30;65.20
67557;DHT22;54387;53.526;49.300;2023-09-19T02:18:12;13.20;65.20
67557;DHT22;54387;53.526;49.300;2023-09-19T02:20:39;13.20;65.30
67557;DHT22;54387;53.526;49.300;2023-09-19T02:23:05;13.20;65.50
67557;DHT22;54387;53.526;49.300;2023-09-19T02:25:32;13.20;65.50
67557;DHT22;54387;53.526;49.300;2023-09-19T02:27:58;13.20;65.60
67557;DHT22;54387;53.526;49.300;2023-09-19T02:30:29;13.20;65.70
67557;DHT22;54387;53.526;49.300;2023-09-19T02:32:55;13.30;65.70
67557;DHT22;54387;53.526;49.300;2023-09-19T02:35:21;13.30;65.90
67557;DHT22;54387;53.526;49.300;2023-09-19T02:37:48;13.30;65.90
67557;DHT22;54387;53.526;49.300;2023-09-19T02:40:14;13.30;66.00
67557;DHT22;54387;53.526;49.300;2023-09-19T02:42:55;13.30;66.20
67557;DHT22;54387;53.526;49.300;2023-09-19T02:45:22;13.40;66.30
67557;DHT22;54387;53.526;49.300;2023-09-19T02:47:49;13.40;66.30
67557;DHT22;54387;53.526;49.300;2023-09-19T02:50:16;13.50;66.30
67557;DHT22;54387;53.526;49.300;2023-09-19T02:52:42;13.60;66.30
67557;DHT22;54387;53.526;49.300;2023-09-19T02:55:13;13.70;66.30
67557;DHT22;54387;53.526;49.300;2023-09-19T02:57:46;13.80;66.20
67557;DHT22;54387;53.526;49.300;2023-09-19T03:00:13;14.00;66.20
67557;DHT22;54387;53.526;49.300;2023-09-19T03:02:39;14.00;66.10
67557;DHT22;54387;53.526;49.300;2023-09-19T03:05:07;14.10;66.10
67557;DHT22;54387;53.526;49.300;2023-09-19T03:07:34;14.20;66.40
67557;DHT22;54387;53.526;49.300;2023-09-19T03:10:00;14.20;66.00
67557;DHT22;54387;53.526;49.300;2023-09-19T03:12:26;14.30;66.00
67557;DHT22;54387;53.526;49.300;2023-09-19T03:14:53;14.40;65.90
67557;DHT22;54387;53.526;49.300;2023-09-19T03:17:19;14.40;65.80
67557;DHT22;54387;53.526;49.300;2023-09-19T03:19:46;14.40;65.70
67557;DHT22;54387;53.526;49.300;2023-09-19T03:22:14;14.50;65.60
67557;DHT22;54387;53.526;49.300;2023-09-19T03:24:40;14.40;65.60
67557;DHT22;54387;53.526;49.300;2023-09-19T03:27:09;14.40;65.70
67557;DHT22;54387;53.526;49.300;2023-09-19T03:29:35;14.40;65.80
67557;DHT22;54387;53.526;49.300;2023-09-19T03:32:01;14.30;65.80
67557;DHT22;54387;53.526;49.300;2023-09-19T03:34:27;14.30;65.90
67557;DHT22;54387;53.526;49.300;2023-09-19T03:36:54;14.30;66.00
67557;DHT22;54387;53.526;49.300;2023-09-19T03:39:21;14.40;65.90
67557;DHT22;54387;53.526;49.300;2023-09-19T03:41:47;14.50;65.90
67557;DHT22;54387;53.526;49.300;2023-09-19T03:44:14;14.60;65.70
67557;DHT22;54387;53.526;49.300;2023-09-19T03:46:41;14.80;65.60
67557;DHT22;54387;53.526;49.300;2023-09-19T03:49:07;14.80;65.50
67557;DHT22;54387;53.526;49.300;2023-09-19T03:51:34;14.90;65.30
67557;DHT22;54387;53.526;49.300;2023-09-19T03:54:00;14.90;65.20
67557;DHT22;54387;53.526;49.300;2023-09-19T03:56:26;14.90;65.20
67557;DHT22;54387;53.526;49.300;2023-09-19T03:58:54;14.90;65.10
67557;DHT22;54387;53.526;49.300;2023-09-19T04:01:21;14.90;65.10
67557;DHT22;54387;53.526;49.300;2023-09-19T04:03:47;14.80;65.10
67557;DHT22;54387;53.526;49.300;2023-09-19T04:06:14;14.70;65.20
67557;DHT22;54387;53.526;49.300;2023-09-19T04:08:40;14.70;65.30
67557;DHT22;54387;53.526;49.300;2023-09-19T04:11:07;14.60;65.50
67557;DHT22;54387;53.526;49.300;2023-09-19T04:13:33;14.70;65.60
67557;DHT22;54387;53.526;49.300;2023-09-19T04:15:59;14.80;65.70
67557;DHT22;54387;53.526;49.300;2023-09-19T04:18:26;15.00;65.70
67557;DHT22;54387;53.526;49.300;2023-09-19T04:20:53;15.10;65.40
67557;DHT22;54387;53.526;49.300;2023-09-19T04:23:20;15.20;65.20
67557;DHT22;54387;53.526;49.300;2023-09-19T04:25:46;15.10;65.10
67557;DHT22;54387;53.526;49.300;2023-09-19T04:28:14;15.20;65.00
67557;DHT22;54387;53.526;49.300;2023-09-19T04:30:41;15.20;65.00
67557;DHT22;54387;53.526;49.300;2023-09-19T04:33:08;15.30;64.90
67557;DHT22;54387;53.526;49.300;2023-09-19T04:35:34;15.40;64.80
67557;DHT22;54387;53.526;49.300;2023-09-19T04:38:01;15.40;64.70
67557;DHT22;54387;53.526;49.300;2023-09-19T04:40:29;15.50;64.50
67557;DHT22;54387;53.526;49.300;2023-09-19T04:42:58;15.40;64.50
67557;DHT22;54387;53.526;49.300;2023-09-19T04:45:26;15.30;64.30
67557;DHT22;54387;53.526;49.300;2023-09-19T04:47:52;15.30;64.40
67557;DHT22;54387;53.526;49.300;2023-09-19T04:50:19;15.20;64.40
67557;DHT22;54387;53.526;49.300;2023-09-19T04:52:50;15.20;64.50
67557;DHT22;54387;53.526;49.300;2023-09-19T04:55:17;15.20;64.60
67557;DHT22;54387;53.526;49.300;2023-09-19T04:57:47;15.30;64.50
67557;DHT22;54387;53.526;49.300;2023-09-19T05:00:14;15.40;64.30
67557;DHT22;54387;53.526;49.300;2023-09-19T05:02:42;15.60;63.90
67557;DHT22;54387;53.526;49.300;2023-09-19T05:05:09;15.60;63.70
67557;DHT22;54387;53.526;49.300;2023-09-19T05:07:42;15.70;63.30
67557;DHT22;54387;53.526;49.300;2023-09-19T05:10:10;15.80;63.40
67557;DHT22;54387;53.526;49.300;2023-09-19T05:12:37;15.90;63.20
67557;DHT22;54387;53.526;49.300;2023-09-19T05:15:04;16.10;62.90
67557;DHT22;54387;53.526;49.300;2023-09-19T05:17:30;16.20;62.40
67557;DHT22;54387;53.526;49.300;2023-09-19T05:19:57;16.30;62.20
67557;DHT22;54387;53.526;49.300;2023-09-19T05:22:26;16.30;62.30
67557;DHT22;54387;53.526;49.300;2023-09-19T05:24:52;16.30;62.30
67557;DHT22;54387;53.526;49.300;2023-09-19T05:27:19;16.40;62.30
67557;DHT22;54387;53.526;49.300;2023-09-19T05:29:47;16.60;62.10
67557;DHT22;54387;53.526;49.300;2023-09-19T05:32:15;16.80;61.40
67557;DHT22;54387;53.526;49.300;2023-09-19T05:34:42;17.00;61.00
67557;DHT22;54387;53.526;49.300;2023-09-19T05:37:08;17.10;60.60
67557;DHT22;54387;53.526;49.300;2023-09-19T05:39:35;17.20;60.60
67557;DHT22;54387;53.526;49.300;2023-09-19T05:42:03;17.30;60.20
67557;DHT22;54387;53.526;49.300;2023-09-19T05:44:29;17.30;60.00
67557;DHT22;54387;53.526;49.300;2023-09-19T05:46:55;17.30;60.00
67557;DHT22;54387;53.526;49.300;2023-09-19T05:49:22;17.40;59.80
67557;DHT22;54387;53.526;49.300;2023-09-19T05:51:50;17.40;59.90
67557;DHT22;54387;53.526;49.300;2023-09-19T05:54:19;17.50;59.90
67557;DHT22;54387;53.526;49.300;2023-09-19T05:56:45;17.50;59.70
67557;DHT22;54387;53.526;49.300;2023-09-19T05:59:19;17.40;59.60
67557;DHT22;54387;53.526;49.300;2023-09-19T06:01:45;17.30;59.10
67557;DHT22;54387;53.526;49.300;2023-09-19T06:04:12;17.20;59.00
67557;DHT22;54387;53.526;49.300;2023-09-19T06:06:38;17.20;59.20
67557;DHT22;54387;53.526;49.300;2023-09-19T06:09:06;17.10;58.70
67557;DHT22;54387;53.526;49.300;2023-09-19T06:11:34;17.10;58.50
67557;DHT22;54387;53.526;49.300;2023-09-19T06:14:01;17.00;58.10
67557;DHT22;54387;53.526;49.300;2023-09-19T06:16:28;16.90;58.10
67557;DHT22;54387;53.526;49.300;2023-09-19T06:18:55;16.90;57.60
67557;DHT22;54387;53.526;49.300;2023-09-19T06:21:22;16.80;57.60
67557;DHT22;54387;53.526;49.300;2023-09-19T06:23:48;16.70;57.70
67557;DHT22;54387;53.526;49.300;2023-09-19T06:26:14;16.80;57.80
67557;DHT22;54387;53.526;49.300;2023-09-19T06:28:40;16.90;57.70
67557;DHT22;54387;53.526;49.300;2023-09-19T06:31:08;17.00;57.40
67557;DHT22;54387;53.526;49.300;2023-09-19T06:33:36;17.10;57.00
67557;DHT22;54387;53.526;49.300;2023-09-19T06:36:05;17.30;57.00
67557;DHT22;54387;53.526;49.300;2023-09-19T06:38:31;17.60;56.90
67557;DHT22;54387;53.526;49.300;2023-09-19T06:41:00;17.80;55.80
67557;DHT22;54387;53.526;49.300;2023-09-19T06:43:27;17.90;55.80
67557;DHT22;54387;53.526;49.300;2023-09-19T06:45:56;18.00;55.90
67557;DHT22;54387;53.526;49.300;2023-09-19T06:48:23;18.00;55.40
67557;DHT22;54387;53.526;49.300;2023-09-19T06:50:53;18.00;55.30
67557;DHT22;54387;53.526;49.300;2023-09-19T06:53:19;17.80;54.90
67557;DHT22;54387;53.526;49.300;2023-09-19T06:55:45;17.50;55.20
67557;DHT22;54387;53.526;49.300;2023-09-19T06:58:13;17.40;55.10
67557;DHT22;54387;53.526;49.300;2023-09-19T07:00:42;17.20;55.10
67557;DHT22;54387;53.526;49.300;2023-09-19T07:03:10;17.10;55.40
67557;DHT22;54387;53.526;49.300;2023-09-19T07:05:40;17.00;55.50
67557;DHT22;54387;53.526;49.300;2023-09-19T07:08:07;17.00;55.40
67557;DHT22;54387;53.526;49.300;2023-09-19T07:10:34;17.00;55.50
67557;DHT22;54387;53.526;49.300;2023-09-19T07:13:04;17.00;55.60
67557;DHT22;54387;53.526;49.300;2023-09-19T07:15:32;17.10;55.80
67557;DHT22;54387;53.526;49.300;2023-09-19T07:18:01;17.40;55.90
67557;DHT22;54387;53.526;49.300;2023-09-19T07:20:28;17.70;55.50
67557;DHT22;54387;53.526;49.300;2023-09-19T07:23:01;18.00;54.60
67557;DHT22;54387;53.526;49.300;2023-09-19T07:25:27;18.10;53.20
67557;DHT22;54387;53.526;49.300;2023-09-19T07:27:57;18.20;52.00
67557;DHT22;54387;53.526;49.300;2023-09-19T07:30:27;18.30;50.00
67557;DHT22;54387;53.526;49.300;2023-09-19T07:32:53;18.60;49.00
67557;DHT22;54387;53.526;49.300;2023-09-19T07:35:20;18.90;47.50
67557;DHT22;54387;53.526;49.300;2023-09-19T07:37:46;19.10;47.20
67557;DHT22;54387;53.526;49.300;2023-09-19T07:40:15;19.30;45.30
67557;DHT22;54387;53.526;49.300;2023-09-19T07:42:42;19.40;45.20
67557;DHT22;54387;53.526;49.300;2023-09-19T07:45:10;19.60;45.00
67557;DHT22;54387;53.526;49.300;2023-09-19T07:47:49;19.60;44.10
67557;DHT22;54387;53.526;49.300;2023-09-19T07:50:16;19.70;43.40
67557;DHT22;54387;53.526;49.300;2023-09-19T07:52:44;19.60;43.50
67557;DHT22;54387;53.526;49.300;2023-09-19T07:55:10;19.50;43.80
67557;DHT22;54387;53.526;49.300;2023-09-19T07:57:37;19.40;43.60
67557;DHT22;54387;53.526;49.300;2023-09-19T08:00:03;19.30;43.40
67557;DHT22;54387;53.526;49.300;2023-09-19T08:02:36;19.00;42.90
67557;DHT22;54387;53.526;49.300;2023-09-19T08:05:04;18.80;44.60
67557;DHT22;54387;53.526;49.300;2023-09-19T08:07:36;18.70;43.60
67557;DHT22;54387;53.526;49.300;2023-09-19T08:10:03;18.50;43.90
67557;DHT22;54387;53.526;49.300;2023-09-19T08:12:29;18.50;44.40
67557;DHT22;54387;53.526;49.300;2023-09-19T08:14:56;18.50;44.60
67557;DHT22;54387;53.526;49.300;2023-09-19T08:17:22;18.70;43.80
67557;DHT22;54387;53.526;49.300;2023-09-19T08:19:51;18.80;43.30
67557;DHT22;54387;53.526;49.300;2023-09-19T08:22:19;18.80;43.20
67557;DHT22;54387;53.526;49.300;2023-09-19T08:24:45;18.80;43.20
67557;DHT22;54387;53.526;49.300;2023-09-19T08:27:14;18.90;43.50
67557;DHT22;54387;53.526;49.300;2023-09-19T08:29:40;18.90;43.10
67557;DHT22;54387;53.526;49.300;2023-09-19T08:32:06;18.90;43.20
67557;DHT22;54387;53.526;49.300;2023-09-19T08:34:32;19.00;43.30
67557;DHT22;54387;53.526;49.300;2023-09-19T08:36:59;19.10;43.20
67557;DHT22;54387;53.526;49.300;2023-09-19T08:39:26;19.30;42.70
67557;DHT22;54387;53.526;49.300;2023-09-19T08:41:59;19.40;42.10
67557;DHT22;54387;53.526;49.300;2023-09-19T08:44:27;19.40;41.80
67557;DHT22;54387;53.526;49.300;2023-09-19T08:47:01;19.30;42.00
67557;DHT22;54387;53.526;49.300;2023-09-19T08:49:41;19.30;41.70
67557;DHT22;54387;53.526;49.300;2023-09-19T08:52:20;19.40;41.30
67557;DHT22;54387;53.526;49.300;2023-09-19T08:54:47;19.80;41.00
67557;DHT22;54387;53.526;49.300;2023-09-19T08:57:14;20.10;40.70
67557;DHT22;54387;53.526;49.300;2023-09-19T08:59:47;20.30;39.70
67557;DHT22;54387;53.526;49.300;2023-09-19T09:02:14;20.40;38.90
67557;DHT22;54387;53.526;49.300;2023-09-19T09:04:41;20.50;39.50
67557;DHT22;54387;53.526;49.300;2023-09-19T09:07:10;20.50;39.90
67557;DHT22;54387;53.526;49.300;2023-09-19T09:09:37;20.60;40.20
67557;DHT22;54387;53.526;49.300;2023-09-19T09:12:03;20.50;40.40
67557;DHT22;54387;53.526;49.300;2023-09-19T09:14:30;20.40;41.00
67557;DHT22;54387;53.526;49.300;2023-09-19T09:16:56;20.50;41.40
67557;DHT22;54387;53.526;49.300;2023-09-19T09:19:24;20.80;41.00
67557;DHT22;54387;53.526;49.300;2023-09-19T09:21:51;21.10;40.70
67557;DHT22;54387;53.526;49.300;2023-09-19T09:24:26;21.30;40.20
67557;DHT22;54387;53.526;49.300;2023-09-19T09:26:52;21.70;39.80
67557;DHT22;54387;53.526;49.300;2023-09-19T09:29:33;22.10;37.80
67557;DHT22;54387;53.526;49.300;2023-09-19T09:34:52;22.00;37.10
67557;DHT22;54387;53.526;49.300;2023-09-19T09:37:18;22.00;37.60
67557;DHT22;54387;53.526;49.300;2023-09-19T09:39:55;22.20;36.80
67557;DHT22;54387;53.526;49.300;2023-09-19T09:42:36;22.10;36.80
67557;DHT22;54387;53.526;49.300;2023-09-19T09:45:21;21.90;36.80
67557;DHT22;54387;53.526;49.300;2023-09-19T09:48:08;21.50;37.10
67557;DHT22;54387;53.526;49.300;2023-09-19T09:50:47;21.50;37.50
67557;DHT22;54387;53.526;49.300;2023-09-19T09:53:27;23.00;36.40
67557;DHT22;54387;53.526;49.300;2023-09-19T09:55:56;24.60;33.60
67557;DHT22;54387;53.526;49.300;2023-09-19T09:58:23;26.60;30.80
67557;DHT22;54387;53.526;49.300;2023-09-19T10:00:55;28.70;29.50
67557;DHT22;54387;53.526;49.300;2023-09-19T10:03:30;30.70;27.80
67557;DHT22;54387;53.526;49.300;2023-09-19T10:05:59;32.50;27.00
67557;DHT22;54387;53.526;49.300;2023-09-19T10:08:34;34.00;26.10
67557;DHT22;54387;53.526;49.300;2023-09-19T10:11:15;35.30;24.80
67557;DHT22;54387;53.526;49.300;2023-09-19T10:13:46;36.20;23.50
67557;DHT22;54387;53.526;49.300;2023-09-19T10:16:13;36.80;22.80
67557;DHT22;54387;53.526;49.300;2023-09-19T10:18:44;37.20;23.40
67557;DHT22;54387;53.526;49.300;2023-09-19T10:21:12;37.90;22.40
67557;DHT22;54387;53.526;49.300;2023-09-19T10:23:38;38.40;22.70
67557;DHT22;54387;53.526;49.300;2023-09-19T10:26:06;39.00;22.00
67557;DHT22;54387;53.526;49.300;2023-09-19T10:28:35;39.20;20.80
67557;DHT22;54387;53.526;49.300;2023-09-19T10:31:01;39.30;21.20
67557;DHT22;54387;53.526;49.300;2023-09-19T10:33:29;39.50;21.00
67557;DHT22;54387;53.526;49.300;2023-09-19T10:36:02;39.50;20.80
67557;DHT22;54387;53.526;49.300;2023-09-19T10:38:31;39.70;20.70
67557;DHT22;54387;53.526;49.300;2023-09-19T10:40:59;39.60;19.70
67557;DHT22;54387;53.526;49.300;2023-09-19T10:43:29;39.50;19.90
67557;DHT22;54387;53.526;49.300;2023-09-19T10:45:57;39.10;20.10
67557;DHT22;54387;53.526;49.300;2023-09-19T10:48:26;39.20;20.40
67557;DHT22;54387;53.526;49.300;2023-09-19T10:50:58;39.50;20.10
67557;DHT22;54387;53.526;49.300;2023-09-19T10:53:31;39.40;19.40
67557;DHT22;54387;53.526;49.300;2023-09-19T10:56:05;38.40;20.20
67557;DHT22;54387;53.526;49.300;2023-09-19T10:58:36;38.10;19.90
67557;DHT22;54387;53.526;49.300;2023-09-19T11:01:04;36.50;20.90
67557;DHT22;54387;53.526;49.300;2023-09-19T11:03:41;34.30;20.70
67557;DHT22;54387;53.526;49.300;2023-09-19T11:08:52;30.60;22.20
67557;DHT22;54387;53.526;49.300;2023-09-19T11:30:35;22.70;28.20
67557;DHT22;54387;53.526;49.300;2023-09-19T11:33:18;22.20;28.90
67557;DHT22;54387;53.526;49.300;2023-09-19T11:36:06;21.90;29.10
67557;DHT22;54387;53.526;49.300;2023-09-19T11:43:48;21.60;29.70
67557;DHT22;54387;53.526;49.300;2023-09-19T11:46:16;21.40;29.80
67557;DHT22;54387;53.526;49.300;2023-09-19T11:48:42;21.20;30.00
67557;DHT22;54387;53.526;49.300;2023-09-19T11:51:28;21.00;30.50
67557;DHT22;54387;53.526;49.300;2023-09-19T11:53:55;20.80;30.70
67557;DHT22;54387;53.526;49.300;2023-09-19T11:56:23;20.50;31.00
67557;DHT22;54387;53.526;49.300;2023-09-19T11:58:52;20.30;31.40
67557;DHT22;54387;53.526;49.300;2023-09-19T12:01:22;20.10;32.00
67557;DHT22;54387;53.526;49.300;2023-09-19T12:03:52;19.90;32.10
67557;DHT22;54387;53.526;49.300;2023-09-19T12:06:19;19.70;32.30
67557;DHT22;54387;53.526;49.300;2023-09-19T12:08:47;19.50;32.40
67557;DHT22;54387;53.526;49.300;2023-09-19T12:11:14;19.40;32.70
67557;DHT22;54387;53.526;49.300;2023-09-19T12:13:45;19.30;32.90
67557;DHT22;54387;53.526;49.300;2023-09-19T12:16:12;19.20;33.10
67557;DHT22;54387;53.526;49.300;2023-09-19T12:18:41;19.10;33.30
67557;DHT22;54387;53.526;49.300;2023-09-19T12:23:58;19.10;33.90
67557;DHT22;54387;53.526;49.300;2023-09-19T12:26:28;19.20;34.10
67557;DHT22;54387;53.526;49.300;2023-09-19T12:28:55;19.20;34.10
67557;DHT22;54387;53.526;49.300;2023-09-19T12:31:21;19.20;34.20
67557;DHT22;54387;53.526;49.300;2023-09-19T12:33:55;19.20;34.40
67557;DHT22;54387;53.526;49.300;2023-09-19T12:38:54;19.40;34.50
67557;DHT22;54387;53.526;49.300;2023-09-19T12:41:21;19.70;34.60
67557;DHT22;54387;53.526;49.300;2023-09-19T12:43:48;20.50;34.20
67557;DHT22;54387;53.526;49.300;2023-09-19T12:46:14;21.50;32.60
67557;DHT22;54387;53.526;49.300;2023-09-19T12:48:40;22.30;31.60
67557;DHT22;54387;53.526;49.300;2023-09-19T12:51:10;22.80;30.00
67557;DHT22;54387;53.526;49.300;2023-09-19T12:53:39;23.10;29.60
67557;DHT22;54387;53.526;49.300;2023-09-19T12:56:16;23.20;29.40
67557;DHT22;54387;53.526;49.300;2023-09-19T13:01:22;23.00;28.90
67557;DHT22;54387;53.526;49.300;2023-09-19T13:06:53;22.80;29.60
67557;DHT22;54387;53.526;49.300;2023-09-19T13:09:21;23.00;29.20
67557;DHT22;54387;53.526;49.300;2023-09-19T13:11:48;22.90;29.40
67557;DHT22;54387;53.526;49.300;2023-09-19T13:17:02;22.40;30.60
67557;DHT22;54387;53.526;49.300;2023-09-19T13:22:39;21.90;30.30
67557;DHT22;54387;53.526;49.300;2023-09-19T13:25:09;21.70;30.80
67557;DHT22;54387;53.526;49.300;2023-09-19T13:27:40;21.60;31.10
67557;DHT22;54387;53.526;49.300;2023-09-19T13:30:06;21.70;31.40
67557;DHT22;54387;53.526;49.300;2023-09-19T13:32:33;21.80;31.20
67557;DHT22;54387;53.526;49.300;2023-09-19T13:35:00;22.00;31.20
67557;DHT22;54387;53.526;49.300;2023-09-19T13:37:26;22.10;31.10
67557;DHT22;54387;53.526;49.300;2023-09-19T13:39:52;22.20;31.10
67557;DHT22;54387;53.526;49.300;2023-09-19T13:42:19;22.40;31.00
67557;DHT22;54387;53.526;49.300;2023-09-19T13:44:47;22.70;30.80
67557;DHT22;54387;53.526;49.300;2023-09-19T13:47:13;23.00;30.10
67557;DHT22;54387;53.526;49.300;2023-09-19T13:49:43;23.20;30.00
67557;DHT22;54387;53.526;49.300;2023-09-19T13:52:10;23.20;30.00
67557;DHT22;54387;53.526;49.300;2023-09-19T13:54:38;22.90;29.90
67557;DHT22;54387;53.526;49.300;2023-09-19T13:57:05;22.40;30.00
67557;DHT22;54387;53.526;49.300;2023-09-19T13:59:31;21.80;30.40
67557;DHT22;54387;53.526;49.300;2023-09-19T14:01:57;21.20;30.90
67557;DHT22;54387;53.526;49.300;2023-09-19T14:04:23;20.70;31.50
67557;DHT22;54387;53.526;49.300;2023-09-19T14:06:49;20.30;32.10
67557;DHT22;54387;53.526;49.300;2023-09-19T14:09:15;19.90;32.90
67557;DHT22;54387;53.526;49.300;2023-09-19T14:11:45;19.60;33.80
67557;DHT22;54387;53.526;49.300;2023-09-19T14:14:13;19.30;34.00
67557;DHT22;54387;53.526;49.300;2023-09-19T14:16:39;19.00;35.00
67557;DHT22;54387;53.526;49.300;2023-09-19T14:19:07;18.80;35.50
67557;DHT22;54387;53.526;49.300;2023-09-19T14:21:34;18.60;35.80
67557;DHT22;54387;53.526;49.300;2023-09-19T14:24:02;18.30;36.00
67557;DHT22;54387;53.526;49.300;2023-09-19T14:26:28;18.20;36.50
67557;DHT22;54387;53.526;49.300;2023-09-19T14:28:55;18.00;36.90
67557;DHT22;54387;53.526;49.300;2023-09-19T14:31:21;17.90;36.90
67557;DHT22;54387;53.526;49.300;2023-09-19T14:33:52;17.80;37.20
67557;DHT22;54387;53.526;49.300;2023-09-19T14:36:19;17.60;37.80
67557;DHT22;54387;53.526;49.300;2023-09-19T14:38:46;17.50;38.00
67557;DHT22;54387;53.526;49.300;2023-09-19T14:41:13;17.30;38.10
67557;DHT22;54387;53.526;49.300;2023-09-19T14:43:39;17.10;38.60
67557;DHT22;54387;53.526;49.300;2023-09-19T14:46:06;17.00;38.90
67557;DHT22;54387;53.526;49.300;2023-09-19T14:48:36;16.80;39.10
67557;DHT22;54387;53.526;49.300;2023-09-19T14:51:03;16.70;39.20
67557;DHT22;54387;53.526;49.300;2023-09-19T14:53:31;16.50;39.50
67557;DHT22;54387;53.526;49.300;2023-09-19T14:55:59;16.40;39.50
67557;DHT22;54387;53.526;49.300;2023-09-19T14:58:26;16.30;40.00
67557;DHT22;54387;53.526;49.300;2023-09-19T15:01:02;16.10;40.30
67557;DHT22;54387;53.526;49.300;2023-09-19T15:03:29;16.00;41.00
67557;DHT22;54387;53.526;49.300;2023-09-19T15:06:03;15.90;40.80
67557;DHT22;54387;53.526;49.300;2023-09-19T15:08:31;15.80;41.70
67557;DHT22;54387;53.526;49.300;2023-09-19T15:10:58;15.70;41.50
67557;DHT22;54387;53.526;49.300;2023-09-19T15:13:30;15.60;41.50
67557;DHT22;54387;53.526;49.300;2023-09-19T15:16:02;15.50;41.80
67557;DHT22;54387;53.526;49.300;2023-09-19T15:18:29;15.40;41.70
67557;DHT22;54387;53.526;49.300;2023-09-19T15:21:03;15.30;41.80
67557;DHT22;54387;53.526;49.300;2023-09-19T15:23:30;15.30;41.80
67557;DHT22;54387;53.526;49.300;2023-09-19T15:25:58;15.20;42.00
67557;DHT22;54387;53.526;49.300;2023-09-19T15:28:24;15.10;42.10
67557;DHT22;54387;53.526;49.300;2023-09-19T15:30:56;15.00;42.30
67557;DHT22;54387;53.526;49.300;2023-09-19T15:33:23;14.90;42.40
67557;DHT22;54387;53.526;49.300;2023-09-19T15:35:49;14.90;42.40
67557;DHT22;54387;53.526;49.300;2023-09-19T15:38:15;14.80;43.00
67557;DHT22;54387;53.526;49.300;2023-09-19T15:40:48;14.70;42.90
67557;DHT22;54387;53.526;49.300;2023-09-19T15:43:15;14.70;43.00
67557;DHT22;54387;53.526;49.300;2023-09-19T15:45:43;14.60;43.00
67557;DHT22;54387;53.526;49.300;2023-09-19T15:48:09;14.50;43.00
67557;DHT22;54387;53.526;49.300;2023-09-19T15:50:35;14.50;43.30
67557;DHT22;54387;53.526;49.300;2023-09-19T15:53:01;14.40;43.20
67557;DHT22;54387;53.526;49.300;2023-09-19T15:55:27;14.30;43.50
67557;DHT22;54387;53.526;49.300;2023-09-19T15:57:54;14.30;43.60
67557;DHT22;54387;53.526;49.300;2023-09-19T16:00:20;14.20;43.70
67557;DHT22;54387;53.526;49.300;2023-09-19T16:02:48;14.20;44.10
67557;DHT22;54387;53.526;49.300;2023-09-19T16:05:16;14.10;44.10
67557;DHT22;54387;53.526;49.300;2023-09-19T16:07:42;14.00;44.30
67557;DHT22;54387;53.526;49.300;2023-09-19T16:10:09;14.00;44.60
67557;DHT22;54387;53.526;49.300;2023-09-19T16:12:36;13.90;44.80
67557;DHT22;54387;53.526;49.300;2023-09-19T16:15:03;13.90;45.20
67557;DHT22;54387;53.526;49.300;2023-09-19T16:17:30;13.80;45.40
67557;DHT22;54387;53.526;49.300;2023-09-19T16:19:56;13.80;45.60
67557;DHT22;54387;53.526;49.300;2023-09-19T16:22:22;13.70;45.80
67557;DHT22;54387;53.526;49.300;2023-09-19T16:24:49;13.70;46.10